Impacts TAF Board INFO
FOR SITUATIONAL AWARENESS. NOT TO BE USED FOR FLIGHT PLANNING PURPOSES.
IDs:

KJFK - New York/Kennedy Int, NY, US

Issued at 0653 UTC 26 Apr 2018
Updated at 0751 UTC 26 Apr 2018
Potential Impact None Slight Moderate High
Time0651Z 26/08Z 26/09Z 26/10Z 26/11Z 26/12Z 26/13Z 26/14Z 26/15Z 26/16Z 26/17Z 26/18Z 26/19Z 26/20Z>>
Type OBS PRVL PRVL PRVL PRVL PRVL PRVL PRVL PRVL PRVL PRVL PRVL PRVL PRVL
VIS 3 4 4 >6 >6 >6 >6 >6 >6 >6 >6 >6 >6 >6
CIG 95 50 50 -- -- -- -- -- -- -- -- -- -- --
Cover OVC OVC OVC SCT SCT SCT SCT SCT SCT SCT FEW FEW FEW FEW
FltCat MVFR MVFR MVFR VFR VFR VFR VFR VFR VFR VFR VFR VFR VFR VFR
WX BR BR BR -- -- -- -- -- -- -- -- -- -- --
WDir 240 260 260 290 290 290 280 280 280 280 250 250 250 250
WSpd 4 6 6 11 11 11 14 14 14 14 15 15 15 15
WGst -- -- -- -- -- -- 21 21 21 21 22 22 22 22

Raw TAF
KJFK 260653Z 2607/2712 26006KT 4SM BR SCT005 OVC050
  FM261000 29011KT P6SM SCT250
  FM261300 28014G21KT P6SM SCT250
  FM261700 25015G22KT P6SM FEW250
  FM262300 23010KT P6SM SKC
  FM270300 VRB05KT P6SM SKC
  FM270900 12005KT P6SM SCT250


Raw METAR
KJFK 260651Z 24004KT 3SM BR SCT005 SCT039 OVC095 11/11 A2960 RMK AO2 SFC VIS 4 RAE41 SLP023 P0004 T01060106 $
KJFK 260642Z 21003KT 3SM BR SCT005 BKN050 OVC090 11/11 A2960 RMK AO2 SFC VIS 4 RAE41 P0004 T01060106 $
KJFK 260551Z 23003KT 2SM -RA BR BKN004 OVC050 11/11 A2962 RMK AO2 RAB51 SLP028 P0000 60001 T01060106 10117 20106 58018 $
KJFK 260451Z 00000KT 1/4SM R04R/2600V5500FT BR OVC004 11/11 A2963 RMK AO2 SFC VIS 1 1/2 RAE13B32E47 SLP035 P0001 T01060106 401390106 $

METAR Board
Radar Display
Forecast Discussion

FOR SITUATIONAL AWARENESS. NOT TO BE USED FOR FLIGHT PLANNING PURPOSES.